createdAt,value
2023-05-08T00:01:06.984Z,9.82
2023-05-08T00:03:40.419Z,11.23
2023-05-08T00:06:13.839Z,11.07
2023-05-08T00:08:47.116Z,10.50
2023-05-08T00:11:20.897Z,9.27
2023-05-08T00:13:55.436Z,11.25
2023-05-08T00:16:28.704Z,9.82
2023-05-08T00:19:01.923Z,10.18
2023-05-08T00:21:35.103Z,10.65
2023-05-08T00:24:08.765Z,9.68
2023-05-08T00:26:44.341Z,9.15
2023-05-08T00:29:18.925Z,11.43
2023-05-08T00:31:52.544Z,9.35
2023-05-08T00:36:59.240Z,8.15
2023-05-08T00:39:32.427Z,9.55
2023-05-08T00:42:05.854Z,9.13
2023-05-08T00:44:41.253Z,8.23
2023-05-08T00:47:14.581Z,9.32
2023-05-08T00:49:47.901Z,8.48
2023-05-08T00:52:21.823Z,7.95
2023-05-08T00:54:55.951Z,9.25
2023-05-08T01:00:07.707Z,9.52
2023-05-08T01:02:41.725Z,10.20
2023-05-08T01:05:15.693Z,9.18
2023-05-08T01:07:49.161Z,9.75
2023-05-08T01:10:22.569Z,8.63
2023-05-08T01:13:25.509Z,10.02
2023-05-08T01:16:08.171Z,9.95
2023-05-08T01:18:46.976Z,9.30
2023-05-08T01:21:28.597Z,8.85
2023-05-08T01:24:32.311Z,10.05
2023-05-08T01:27:41.789Z,8.73
2023-05-08T01:30:56.815Z,8.63
2023-05-08T01:36:18.787Z,9.20
2023-05-08T01:38:57.927Z,7.65
2023-05-08T01:41:34.246Z,9.13
2023-05-08T01:44:13.583Z,8.23
2023-05-08T01:46:50.794Z,8.10
2023-05-08T01:49:29.504Z,7.65
2023-05-08T01:52:18.690Z,8.52
2023-05-08T01:55:06.346Z,9.90
2023-05-08T01:57:46.131Z,8.18
2023-05-08T02:00:23.163Z,7.57
2023-05-08T02:02:58.320Z,7.40
2023-05-08T02:05:35.073Z,9.00
2023-05-08T02:08:10.366Z,8.27
2023-05-08T02:10:44.711Z,7.88
2023-05-08T02:13:20.124Z,8.02
2023-05-08T02:15:57.258Z,8.27
2023-05-08T02:18:33.040Z,9.27
2023-05-08T02:21:09.476Z,8.70
2023-05-08T02:23:44.010Z,8.23
2023-05-08T02:26:18.122Z,8.52
2023-05-08T02:28:53.104Z,9.50
2023-05-08T02:31:27.301Z,9.00
2023-05-08T02:34:02.707Z,10.23
2023-05-08T02:36:38.320Z,9.27
2023-05-08T02:39:14.857Z,9.15
2023-05-08T02:41:48.383Z,9.63
2023-05-08T02:44:21.762Z,8.65
2023-05-08T02:46:59.913Z,9.60
2023-05-08T02:49:48.397Z,9.27
2023-05-08T02:52:30.425Z,8.27
2023-05-08T02:55:09.658Z,9.30
2023-05-08T02:57:49.144Z,9.82
2023-05-08T03:00:25.661Z,8.68
2023-05-08T03:03:06.280Z,8.55
2023-05-08T03:05:44.102Z,9.50
2023-05-08T03:08:25.019Z,8.80
2023-05-08T03:11:02.325Z,9.00
2023-05-08T03:13:37.467Z,9.02
2023-05-08T03:16:16.058Z,9.10
2023-05-08T03:18:54.408Z,8.98
2023-05-08T03:21:31.878Z,8.75
2023-05-08T03:24:08.580Z,9.25
2023-05-08T03:26:43.276Z,8.50
2023-05-08T03:29:17.816Z,8.95
2023-05-08T03:31:53.167Z,9.77
2023-05-08T03:34:27.293Z,10.27
2023-05-08T03:37:00.695Z,9.07
2023-05-08T03:39:35.509Z,8.45
2023-05-08T03:42:08.914Z,7.60
2023-05-08T03:44:43.645Z,8.18
2023-05-08T03:47:18.362Z,8.25
2023-05-08T03:49:51.790Z,8.23
2023-05-08T03:52:25.699Z,8.35
2023-05-08T03:55:01.477Z,7.85
2023-05-08T03:57:41.681Z,8.00
2023-05-08T04:00:19.814Z,7.82
2023-05-08T04:03:02.261Z,7.78
2023-05-08T04:05:39.234Z,8.45
2023-05-08T04:08:19.908Z,7.57
2023-05-08T04:11:05.209Z,7.90
2023-05-08T04:13:44.349Z,7.45
2023-05-08T04:16:24.030Z,8.13
2023-05-08T04:19:02.528Z,8.45
2023-05-08T04:21:40.212Z,8.02
2023-05-08T04:24:16.126Z,7.75
2023-05-08T04:26:52.952Z,7.57
2023-05-08T04:29:26.708Z,7.07
2023-05-08T04:32:01.963Z,6.90
2023-05-08T04:34:35.741Z,8.38
2023-05-08T04:37:09.056Z,7.03
2023-05-08T04:39:43.761Z,8.05
2023-05-08T04:42:18.635Z,7.25
2023-05-08T04:44:51.840Z,7.10
2023-05-08T04:47:25.201Z,7.07
2023-05-08T04:49:59.543Z,7.43
2023-05-08T04:52:35.877Z,6.35
2023-05-08T04:55:10.471Z,7.45
2023-05-08T04:57:46.743Z,7.15
2023-05-08T05:00:21.524Z,7.10
2023-05-08T05:02:55.291Z,8.48
2023-05-08T05:05:28.758Z,7.55
2023-05-08T05:08:02.359Z,7.32
2023-05-08T05:10:35.872Z,7.40
2023-05-08T05:13:10.748Z,6.40
2023-05-08T05:15:44.682Z,6.72
2023-05-08T05:18:19.326Z,6.25
2023-05-08T05:23:26.470Z,7.82
2023-05-08T05:25:59.860Z,6.65
2023-05-08T05:28:34.877Z,6.57
2023-05-08T05:31:08.233Z,6.78
2023-05-08T05:33:42.548Z,6.45
2023-05-08T05:36:16.188Z,6.95
2023-05-08T05:38:49.825Z,6.90
2023-05-08T05:41:23.200Z,6.55
2023-05-08T05:43:58.458Z,7.53
2023-05-08T05:46:32.813Z,6.78
2023-05-08T05:49:08.774Z,6.25
2023-05-08T05:51:42.265Z,7.28
2023-05-08T05:54:15.807Z,6.22
2023-05-08T05:56:49.167Z,7.05
2023-05-08T05:59:23.896Z,6.53
2023-05-08T06:01:57.969Z,6.75
2023-05-08T06:04:31.657Z,6.50
2023-05-08T06:09:38.237Z,6.70
2023-05-08T06:12:12.088Z,6.30
2023-05-08T06:14:47.120Z,6.22
2023-05-08T06:17:20.405Z,6.93
2023-05-08T06:19:56.662Z,7.47
2023-05-08T06:22:30.094Z,6.65
2023-05-08T06:25:03.807Z,6.80
2023-05-08T06:27:37.351Z,5.95
2023-05-08T06:30:13.127Z,6.57
2023-05-08T06:32:46.460Z,6.25
2023-05-08T06:35:20.000Z,6.00
2023-05-08T06:37:53.263Z,6.28
2023-05-08T06:40:26.636Z,6.75
2023-05-08T06:42:59.921Z,5.63
2023-05-08T06:45:34.537Z,5.78
2023-05-08T06:48:08.366Z,6.35
2023-05-08T06:50:43.278Z,5.75
2023-05-08T06:53:16.670Z,5.97
2023-05-08T06:55:49.862Z,5.47
2023-05-08T06:58:23.156Z,5.70
2023-05-08T07:00:57.811Z,5.55
2023-05-08T07:03:31.278Z,5.93
2023-05-08T07:06:04.751Z,5.60
2023-05-08T07:08:38.411Z,5.82
2023-05-08T07:11:11.590Z,7.50
2023-05-08T07:13:46.153Z,4.80
2023-05-08T07:16:20.756Z,5.35
2023-05-08T07:18:53.998Z,5.63
2023-05-08T07:21:27.373Z,5.05
2023-05-08T07:24:00.626Z,5.15
2023-05-08T07:26:33.938Z,5.78
2023-05-08T07:29:08.185Z,5.10
2023-05-08T07:31:43.018Z,5.15
2023-05-08T07:34:16.977Z,5.82
2023-05-08T07:39:23.241Z,7.68
2023-05-08T07:41:56.513Z,5.57
2023-05-08T07:44:33.199Z,4.57
2023-05-08T07:47:12.613Z,4.78
2023-05-08T07:49:46.286Z,5.50
2023-05-08T07:52:19.487Z,5.35
2023-05-08T07:54:52.739Z,5.22
2023-05-08T07:57:26.149Z,6.13
2023-05-08T08:00:03.697Z,5.78
2023-05-08T08:02:48.141Z,5.90
2023-05-08T08:05:21.657Z,5.88
2023-05-08T08:07:55.016Z,6.85
2023-05-08T08:10:28.414Z,7.22
2023-05-08T08:13:02.020Z,6.20
2023-05-08T08:15:35.456Z,6.18
2023-05-08T08:18:10.319Z,5.97
2023-05-08T08:20:44.235Z,6.30
2023-05-08T08:25:50.630Z,7.50
2023-05-08T08:28:23.911Z,7.20
2023-05-08T08:30:57.258Z,5.75
2023-05-08T08:33:32.005Z,6.53
2023-05-08T08:36:05.527Z,6.43
2023-05-08T08:38:38.839Z,8.25
2023-05-08T08:41:14.767Z,7.32
2023-05-08T08:43:48.170Z,7.32
2023-05-08T08:46:25.359Z,8.05
2023-05-08T08:49:03.358Z,6.32
2023-05-08T08:51:44.317Z,7.15
2023-05-08T08:54:22.368Z,7.15
2023-05-08T08:56:57.868Z,6.85
2023-05-08T08:59:32.488Z,7.47
2023-05-08T09:02:10.289Z,8.70
2023-05-08T09:04:45.464Z,97.00
2023-05-08T09:07:19.356Z,198.55
2023-05-08T09:09:54.120Z,418.55
2023-05-08T09:12:27.364Z,289.08
2023-05-08T09:15:00.680Z,246.73
2023-05-08T09:17:34.017Z,195.90
2023-05-08T09:20:10.574Z,173.82
2023-05-08T09:22:44.429Z,166.75
2023-05-08T09:27:52.412Z,155.73
2023-05-08T09:30:25.786Z,141.20
2023-05-08T09:33:03.751Z,133.07
2023-05-08T09:35:38.708Z,129.95
2023-05-08T09:38:33.867Z,129.27
2023-05-08T09:41:08.727Z,104.85
2023-05-08T09:43:42.527Z,89.65
2023-05-08T09:48:58.329Z,76.75
2023-05-08T09:51:33.422Z,68.65
2023-05-08T09:54:18.738Z,60.05
2023-05-08T09:56:51.934Z,63.25
2023-05-08T09:59:27.191Z,59.47
2023-05-08T10:02:00.430Z,52.00
2023-05-08T10:04:34.218Z,49.75
2023-05-08T10:12:31.696Z,45.92
2023-05-08T10:15:05.669Z,41.53
2023-05-08T10:17:45.160Z,43.88
2023-05-08T10:20:21.716Z,38.20
2023-05-08T10:22:58.299Z,38.28
2023-05-08T10:25:34.540Z,39.65
2023-05-08T10:28:12.200Z,39.25
2023-05-08T10:30:49.482Z,39.28
2023-05-08T10:33:24.579Z,37.28
2023-05-08T10:35:57.950Z,35.30
2023-05-08T10:38:34.528Z,36.17
2023-05-08T10:41:08.201Z,34.70
2023-05-08T10:43:43.931Z,31.88
2023-05-08T10:46:26.927Z,33.53
2023-05-08T10:49:09.004Z,31.30
2023-05-08T10:51:50.581Z,29.50
2023-05-08T10:54:35.215Z,29.27
2023-05-08T10:57:10.574Z,27.95
2023-05-08T10:59:47.484Z,26.20
2023-05-08T11:02:28.740Z,26.05
2023-05-08T11:05:16.880Z,24.90
2023-05-08T11:07:57.587Z,22.67
2023-05-08T11:10:33.343Z,23.15
2023-05-08T11:13:08.319Z,21.15
2023-05-08T11:15:42.891Z,19.85
2023-05-08T11:18:18.289Z,19.83
2023-05-08T11:21:04.078Z,20.27
2023-05-08T11:23:37.749Z,18.80
2023-05-08T11:26:14.893Z,17.95
2023-05-08T11:28:58.419Z,18.58
2023-05-08T11:31:53.379Z,18.33
2023-05-08T11:34:49.570Z,16.55
2023-05-08T11:37:25.628Z,14.48
2023-05-08T11:40:46.004Z,14.48
2023-05-08T11:43:47.506Z,14.55
2023-05-08T11:46:22.424Z,14.35
2023-05-08T11:49:01.426Z,15.35
2023-05-08T11:51:34.950Z,14.93
2023-05-08T11:54:08.189Z,13.93
2023-05-08T11:56:41.463Z,14.52
2023-05-08T11:59:16.889Z,12.23
2023-05-08T12:02:06.789Z,11.80
2023-05-08T12:04:46.659Z,12.02
2023-05-08T12:07:20.624Z,14.02
2023-05-08T12:09:53.874Z,13.00
2023-05-08T12:12:37.870Z,12.00
2023-05-08T12:17:49.460Z,11.63
2023-05-08T12:23:10.288Z,12.70
2023-05-08T12:25:43.594Z,13.65
2023-05-08T12:28:17.240Z,11.82
2023-05-08T12:30:50.767Z,10.85
2023-05-08T12:33:24.543Z,11.30
2023-05-08T12:35:57.903Z,12.85
2023-05-08T12:38:32.801Z,11.13
2023-05-08T12:41:08.549Z,11.43
2023-05-08T12:43:44.986Z,11.65
2023-05-08T12:46:18.816Z,10.70
2023-05-08T12:51:31.915Z,12.55
2023-05-08T12:54:06.631Z,13.52
2023-05-08T12:56:44.579Z,14.82
2023-05-08T12:59:17.892Z,14.45
2023-05-08T13:01:53.104Z,13.15
2023-05-08T13:04:26.547Z,13.13
2023-05-08T13:07:00.088Z,15.25
2023-05-08T13:09:35.177Z,14.52
2023-05-08T13:12:08.842Z,14.88
2023-05-08T13:14:42.038Z,14.55
2023-05-08T13:17:18.468Z,16.73
2023-05-08T13:19:51.681Z,14.18
2023-05-08T13:22:26.738Z,13.77
2023-05-08T13:25:01.450Z,14.18
2023-05-08T13:27:34.739Z,13.07
2023-05-08T13:30:09.460Z,14.65
2023-05-08T13:32:42.750Z,12.98
2023-05-08T13:35:16.318Z,14.23
2023-05-08T13:37:50.173Z,12.77
2023-05-08T13:42:59.031Z,13.40
2023-05-08T13:45:33.223Z,12.27
2023-05-08T13:48:06.953Z,13.13
2023-05-08T13:50:40.279Z,14.23
2023-05-08T13:53:13.789Z,13.35
2023-05-08T13:55:48.706Z,13.65
2023-05-08T13:58:23.227Z,12.18
2023-05-08T14:00:56.924Z,11.65
2023-05-08T14:03:30.276Z,13.98
2023-05-08T14:06:03.824Z,11.98
2023-05-08T14:08:45.193Z,11.82
2023-05-08T14:11:22.356Z,12.48
2023-05-08T14:13:55.620Z,11.88
2023-05-08T14:16:30.421Z,10.85
2023-05-08T14:19:03.988Z,11.73
2023-05-08T14:21:37.553Z,10.52
2023-05-08T14:24:11.703Z,10.07
2023-05-08T14:26:46.282Z,11.23
2023-05-08T14:29:20.526Z,10.30
2023-05-08T14:31:53.892Z,10.20
2023-05-08T14:34:27.264Z,7.40
2023-05-08T14:37:00.508Z,8.25
2023-05-08T14:39:33.891Z,8.55
2023-05-08T14:44:45.938Z,7.70
2023-05-08T14:47:19.168Z,6.65
2023-05-08T14:49:53.629Z,7.18
2023-05-08T14:52:26.943Z,7.63
2023-05-08T14:55:00.450Z,6.38
2023-05-08T14:57:35.170Z,5.13
2023-05-08T15:00:09.696Z,6.53
2023-05-08T15:02:43.322Z,6.22
2023-05-08T15:07:54.096Z,6.00
2023-05-08T15:10:27.354Z,5.57
2023-05-08T15:13:02.116Z,4.65
2023-05-08T15:15:35.617Z,4.95
2023-05-08T15:18:09.039Z,4.75
2023-05-08T15:20:42.411Z,4.78
2023-05-08T15:23:15.675Z,4.57
2023-05-08T15:25:49.683Z,3.97
2023-05-08T15:28:24.284Z,4.60
2023-05-08T15:30:57.571Z,4.45
2023-05-08T15:33:30.849Z,4.68
2023-05-08T15:36:04.191Z,4.03
2023-05-08T15:38:37.406Z,4.13
2023-05-08T15:41:14.713Z,4.28
2023-05-08T15:43:50.816Z,3.53
2023-05-08T15:46:24.077Z,3.97
2023-05-08T15:48:57.284Z,4.03
2023-05-08T15:51:30.507Z,3.92
2023-05-08T15:54:03.765Z,3.20
2023-05-08T15:56:37.279Z,2.92
2023-05-08T15:59:12.152Z,3.35
2023-05-08T16:01:47.025Z,4.25
2023-05-08T16:04:20.285Z,3.80
2023-05-08T16:06:53.446Z,3.28
2023-05-08T16:09:26.716Z,3.33
2023-05-08T16:11:59.901Z,3.20
2023-05-08T16:14:35.564Z,3.17
2023-05-08T16:17:09.090Z,2.53
2023-05-08T16:19:42.270Z,3.75
2023-05-08T16:22:15.901Z,3.83
2023-05-08T16:24:49.226Z,3.40
2023-05-08T16:27:22.401Z,3.35
2023-05-08T16:29:57.374Z,3.30
2023-05-08T16:32:30.857Z,2.92
2023-05-08T16:35:04.415Z,2.97
2023-05-08T16:37:37.795Z,3.72
2023-05-08T16:40:11.957Z,4.00
2023-05-08T16:42:45.178Z,3.88
2023-05-08T16:45:19.760Z,2.90
2023-05-08T16:47:53.068Z,3.42
2023-05-08T16:50:26.447Z,2.90
2023-05-08T16:52:59.739Z,2.95
2023-05-08T16:55:33.004Z,3.40
2023-05-08T16:58:07.157Z,2.80
2023-05-08T17:00:41.740Z,2.72
2023-05-08T17:03:15.324Z,2.53
2023-05-08T17:05:48.617Z,24.48
2023-05-08T17:08:21.825Z,8.55
2023-05-08T17:10:55.025Z,9.15
2023-05-08T17:13:28.522Z,10.32
2023-05-08T17:16:03.697Z,10.73
2023-05-08T17:18:36.913Z,10.40
2023-05-08T17:21:10.185Z,10.63
2023-05-08T17:23:45.552Z,10.45
2023-05-08T17:26:18.876Z,10.60
2023-05-08T17:28:52.066Z,5.70
2023-05-08T17:31:26.831Z,9.90
2023-05-08T17:34:00.462Z,10.05
2023-05-08T17:36:33.691Z,9.73
2023-05-08T17:39:06.989Z,8.63
2023-05-08T17:41:40.229Z,8.98
2023-05-08T17:44:13.522Z,8.50
2023-05-08T17:46:48.386Z,9.02
2023-05-08T17:49:21.605Z,8.85
2023-05-08T17:51:54.832Z,8.63
2023-05-08T17:54:28.156Z,7.72
2023-05-08T17:57:01.553Z,7.90
2023-05-08T17:59:34.771Z,8.23
2023-05-08T18:02:09.497Z,9.25
2023-05-08T18:04:42.762Z,7.72
2023-05-08T18:07:16.017Z,9.43
2023-05-08T18:09:49.278Z,6.90
2023-05-08T18:12:22.485Z,7.00
2023-05-08T18:14:55.781Z,7.57
2023-05-08T18:17:30.417Z,7.97
2023-05-08T18:20:07.754Z,7.25
2023-05-08T18:22:41.093Z,7.68
2023-05-08T18:25:14.765Z,8.50
2023-05-08T18:27:50.033Z,7.75
2023-05-08T18:30:23.481Z,8.70
2023-05-08T18:32:58.193Z,7.78
2023-05-08T18:35:31.764Z,7.40
2023-05-08T18:38:05.027Z,7.90
2023-05-08T18:40:38.268Z,7.78
2023-05-08T18:43:11.680Z,6.88
2023-05-08T18:45:44.889Z,7.60
2023-05-08T18:48:19.453Z,6.85
2023-05-08T18:50:52.645Z,6.60
2023-05-08T18:53:25.893Z,7.22
2023-05-08T18:55:59.213Z,7.68
2023-05-08T18:58:32.577Z,6.57
2023-05-08T19:01:06.927Z,6.07
2023-05-08T19:03:41.659Z,7.55
2023-05-08T19:06:15.450Z,6.80
2023-05-08T19:08:48.640Z,7.10
2023-05-08T19:11:21.895Z,8.40
2023-05-08T19:13:56.080Z,6.90
2023-05-08T19:16:29.507Z,6.07
2023-05-08T19:19:04.302Z,6.65
2023-05-08T19:21:37.904Z,5.70
2023-05-08T19:24:11.230Z,6.68
2023-05-08T19:26:44.545Z,6.28
2023-05-08T19:29:17.775Z,6.63
2023-05-08T19:31:51.213Z,5.75
2023-05-08T19:34:25.918Z,6.60
2023-05-08T19:36:59.255Z,6.80
2023-05-08T19:39:32.541Z,6.25
2023-05-08T19:42:06.048Z,5.68
2023-05-08T19:44:39.778Z,6.22
2023-05-08T19:49:47.465Z,6.05
2023-05-08T19:52:20.713Z,6.50
2023-05-08T19:54:53.979Z,7.57
2023-05-08T19:57:27.209Z,6.68
2023-05-08T20:00:00.519Z,6.50
2023-05-08T20:02:34.062Z,6.38
2023-05-08T20:07:45.360Z,6.13
2023-05-08T20:10:18.628Z,5.93
2023-05-08T20:12:51.942Z,5.43
2023-05-08T20:15:25.210Z,5.78
2023-05-08T20:17:59.237Z,5.68
2023-05-08T20:20:34.863Z,6.90
2023-05-08T20:23:08.116Z,6.65
2023-05-08T20:25:41.559Z,5.45
2023-05-08T20:28:15.077Z,5.90
2023-05-08T20:30:48.319Z,6.35
2023-05-08T20:33:21.736Z,6.15
2023-05-08T20:35:56.407Z,5.50
2023-05-08T20:38:29.810Z,5.60
2023-05-08T20:41:03.087Z,6.18
2023-05-08T20:43:36.301Z,5.80
2023-05-08T20:46:10.003Z,5.95
2023-05-08T20:51:18.129Z,5.38
2023-05-08T20:53:51.405Z,6.43
2023-05-08T20:56:24.638Z,5.60
2023-05-08T20:58:57.897Z,5.82
2023-05-08T21:01:31.148Z,6.15
2023-05-08T21:04:04.474Z,6.38
2023-05-08T21:06:39.052Z,5.75
2023-05-08T21:09:12.353Z,6.22
2023-05-08T21:11:45.917Z,5.25
2023-05-08T21:14:26.254Z,7.03
2023-05-08T21:17:00.016Z,6.78
2023-05-08T21:19:33.802Z,6.13
2023-05-08T21:22:09.588Z,6.57
2023-05-08T21:24:44.738Z,7.50
2023-05-08T21:27:18.241Z,6.72
2023-05-08T21:29:51.718Z,7.35
2023-05-08T21:32:25.312Z,7.40
2023-05-08T21:35:01.093Z,6.55
2023-05-08T21:37:39.930Z,6.72
2023-05-08T21:40:13.602Z,6.60
2023-05-08T21:42:46.978Z,6.57
2023-05-08T21:45:20.161Z,6.53
2023-05-08T21:47:53.431Z,7.30
2023-05-08T21:50:28.422Z,7.50
2023-05-08T21:53:04.996Z,7.22
2023-05-08T21:55:38.526Z,7.15
2023-05-08T21:58:11.772Z,7.13
2023-05-08T22:00:44.996Z,6.88
2023-05-08T22:03:19.423Z,7.75
2023-05-08T22:05:53.199Z,8.35
2023-05-08T22:08:27.805Z,6.63
2023-05-08T22:11:01.182Z,7.30
2023-05-08T22:13:34.542Z,7.50
2023-05-08T22:16:08.978Z,8.85
2023-05-08T22:18:42.318Z,6.78
2023-05-08T22:21:15.545Z,7.07
2023-05-08T22:23:50.269Z,8.45
2023-05-08T22:26:23.859Z,6.20
2023-05-08T22:28:57.152Z,6.85
2023-05-08T22:31:30.588Z,7.10
2023-05-08T22:34:04.162Z,7.80
2023-05-08T22:36:37.510Z,7.10
2023-05-08T22:39:12.227Z,7.82
2023-05-08T22:41:45.533Z,8.60
2023-05-08T22:44:18.896Z,7.88
2023-05-08T22:46:52.364Z,7.53
2023-05-08T22:49:25.791Z,7.70
2023-05-08T22:51:59.193Z,7.75
2023-05-08T22:54:33.804Z,7.50
2023-05-08T22:57:07.148Z,8.27
2023-05-08T22:59:40.670Z,7.75
2023-05-08T23:02:13.857Z,7.55
2023-05-08T23:04:47.532Z,7.22
2023-05-08T23:07:21.348Z,8.00
2023-05-08T23:12:28.960Z,8.55
2023-05-08T23:15:02.208Z,8.77
2023-05-08T23:17:35.762Z,8.73
2023-05-08T23:20:10.300Z,7.95
2023-05-08T23:22:43.598Z,8.05
2023-05-08T23:25:18.192Z,8.00
2023-05-08T23:27:51.458Z,8.32
2023-05-08T23:30:24.830Z,7.90
2023-05-08T23:32:58.157Z,8.40
2023-05-08T23:35:31.428Z,8.48
2023-05-08T23:38:04.716Z,8.35
2023-05-08T23:40:39.333Z,8.23
2023-05-08T23:43:12.554Z,8.60
2023-05-08T23:45:46.036Z,8.02
2023-05-08T23:48:19.327Z,9.15
2023-05-08T23:50:52.727Z,7.45
2023-05-08T23:53:26.012Z,9.68
2023-05-08T23:56:00.632Z,10.05
2023-05-08T23:58:33.846Z,8.23
